sensor_id;sensor_type;location;lat;lon;timestamp;temperature;humidity
13074;DHT22;6603;47.066;15.396;2023-11-21T00:01:41;5.20;99.90
13074;DHT22;6603;47.066;15.396;2023-11-21T00:04:07;5.30;99.90
13074;DHT22;6603;47.066;15.396;2023-11-21T00:06:33;5.30;99.90
13074;DHT22;6603;47.066;15.396;2023-11-21T00:09:00;5.30;99.90
13074;DHT22;6603;47.066;15.396;2023-11-21T00:11:26;5.40;99.90
13074;DHT22;6603;47.066;15.396;2023-11-21T00:13:52;5.40;99.90
13074;DHT22;6603;47.066;15.396;2023-11-21T00:16:18;5.20;99.90
13074;DHT22;6603;47.066;15.396;2023-11-21T00:18:44;5.30;99.90
13074;DHT22;6603;47.066;15.396;2023-11-21T00:21:12;5.10;99.90
13074;DHT22;6603;47.066;15.396;2023-11-21T00:23:38;5.10;99.90
13074;DHT22;6603;47.066;15.396;2023-11-21T00:26:04;4.90;99.90
13074;DHT22;6603;47.066;15.396;2023-11-21T00:28:30;5.00;99.90
13074;DHT22;6603;47.066;15.396;2023-11-21T00:30:56;5.20;99.90
13074;DHT22;6603;47.066;15.396;2023-11-21T00:33:22;5.30;99.90
13074;DHT22;6603;47.066;15.396;2023-11-21T00:35:48;5.30;99.90
13074;DHT22;6603;47.066;15.396;2023-11-21T00:38:14;5.30;99.90
13074;DHT22;6603;47.066;15.396;2023-11-21T00:40:40;5.20;99.90
13074;DHT22;6603;47.066;15.396;2023-11-21T00:43:06;5.30;99.90
13074;DHT22;6603;47.066;15.396;2023-11-21T00:45:31;5.30;99.90
13074;DHT22;6603;47.066;15.396;2023-11-21T00:47:57;5.10;99.90
13074;DHT22;6603;47.066;15.396;2023-11-21T00:50:24;5.20;99.90
13074;DHT22;6603;47.066;15.396;2023-11-21T00:52:49;5.20;99.90
13074;DHT22;6603;47.066;15.396;2023-11-21T00:55:17;5.20;99.90
13074;DHT22;6603;47.066;15.396;2023-11-21T00:57:43;5.30;99.90
13074;DHT22;6603;47.066;15.396;2023-11-21T01:00:10;5.30;99.90
13074;DHT22;6603;47.066;15.396;2023-11-21T01:02:46;5.30;99.90
13074;DHT22;6603;47.066;15.396;2023-11-21T01:05:12;5.30;99.90
13074;DHT22;6603;47.066;15.396;2023-11-21T01:07:38;5.40;99.90
13074;DHT22;6603;47.066;15.396;2023-11-21T01:10:04;5.50;99.90
13074;DHT22;6603;47.066;15.396;2023-11-21T01:12:37;5.50;99.90
13074;DHT22;6603;47.066;15.396;2023-11-21T01:15:05;5.30;99.90
13074;DHT22;6603;47.066;15.396;2023-11-21T01:17:34;5.30;99.90
13074;DHT22;6603;47.066;15.396;2023-11-21T01:20:04;5.20;99.90
13074;DHT22;6603;47.066;15.396;2023-11-21T01:22:38;5.30;99.90
13074;DHT22;6603;47.066;15.396;2023-11-21T01:25:04;5.20;99.90
13074;DHT22;6603;47.066;15.396;2023-11-21T01:27:36;5.10;99.90
13074;DHT22;6603;47.066;15.396;2023-11-21T01:30:06;5.20;99.90
13074;DHT22;6603;47.066;15.396;2023-11-21T01:32:33;5.30;99.90
13074;DHT22;6603;47.066;15.396;2023-11-21T01:34:59;5.30;99.90
13074;DHT22;6603;47.066;15.396;2023-11-21T01:37:25;5.30;99.90
13074;DHT22;6603;47.066;15.396;2023-11-21T01:39:54;5.30;99.90
13074;DHT22;6603;47.066;15.396;2023-11-21T01:42:23;5.30;99.90
13074;DHT22;6603;47.066;15.396;2023-11-21T01:44:49;5.20;99.90
13074;DHT22;6603;47.066;15.396;2023-11-21T01:47:16;5.20;99.90
13074;DHT22;6603;47.066;15.396;2023-11-21T01:49:44;5.30;99.90
13074;DHT22;6603;47.066;15.396;2023-11-21T01:52:11;5.20;99.90
13074;DHT22;6603;47.066;15.396;2023-11-21T01:54:38;5.30;99.90
13074;DHT22;6603;47.066;15.396;2023-11-21T01:57:05;5.30;99.90
13074;DHT22;6603;47.066;15.396;2023-11-21T01:59:38;5.20;99.90
13074;DHT22;6603;47.066;15.396;2023-11-21T02:02:08;5.20;99.90
13074;DHT22;6603;47.066;15.396;2023-11-21T02:04:36;5.30;99.90
13074;DHT22;6603;47.066;15.396;2023-11-21T02:07:03;5.30;99.90
13074;DHT22;6603;47.066;15.396;2023-11-21T02:09:32;5.50;99.90
13074;DHT22;6603;47.066;15.396;2023-11-21T02:12:00;5.50;99.90
13074;DHT22;6603;47.066;15.396;2023-11-21T02:14:27;5.50;99.90
13074;DHT22;6603;47.066;15.396;2023-11-21T02:16:54;5.50;99.90
13074;DHT22;6603;47.066;15.396;2023-11-21T02:19:22;5.50;99.90
13074;DHT22;6603;47.066;15.396;2023-11-21T02:21:57;5.60;99.90
13074;DHT22;6603;47.066;15.396;2023-11-21T02:24:32;5.60;99.90
13074;DHT22;6603;47.066;15.396;2023-11-21T02:26:58;5.50;99.90
13074;DHT22;6603;47.066;15.396;2023-11-21T02:29:24;5.50;99.90
13074;DHT22;6603;47.066;15.396;2023-11-21T02:31:54;5.60;99.90
13074;DHT22;6603;47.066;15.396;2023-11-21T02:34:22;5.70;99.90
13074;DHT22;6603;47.066;15.396;2023-11-21T02:36:48;5.70;99.90
13074;DHT22;6603;47.066;15.396;2023-11-21T02:39:15;5.80;99.90
13074;DHT22;6603;47.066;15.396;2023-11-21T02:41:43;5.70;99.90
13074;DHT22;6603;47.066;15.396;2023-11-21T02:44:09;5.60;99.90
13074;DHT22;6603;47.066;15.396;2023-11-21T02:46:36;5.60;99.90
13074;DHT22;6603;47.066;15.396;2023-11-21T02:49:06;5.50;99.90
13074;DHT22;6603;47.066;15.396;2023-11-21T02:51:33;5.70;99.90
13074;DHT22;6603;47.066;15.396;2023-11-21T02:53:59;5.60;99.90
13074;DHT22;6603;47.066;15.396;2023-11-21T02:56:28;5.70;99.90
13074;DHT22;6603;47.066;15.396;2023-11-21T02:58:58;5.70;99.90
13074;DHT22;6603;47.066;15.396;2023-11-21T03:01:25;5.60;99.90
13074;DHT22;6603;47.066;15.396;2023-11-21T03:03:52;5.70;99.90
13074;DHT22;6603;47.066;15.396;2023-11-21T03:06:19;5.60;99.90
13074;DHT22;6603;47.066;15.396;2023-11-21T03:08:45;5.70;99.90
13074;DHT22;6603;47.066;15.396;2023-11-21T03:11:12;5.80;99.90
13074;DHT22;6603;47.066;15.396;2023-11-21T03:13:41;5.90;99.90
13074;DHT22;6603;47.066;15.396;2023-11-21T03:16:11;5.90;99.90
13074;DHT22;6603;47.066;15.396;2023-11-21T03:18:38;5.80;99.90
13074;DHT22;6603;47.066;15.396;2023-11-21T03:21:05;5.80;99.90
13074;DHT22;6603;47.066;15.396;2023-11-21T03:23:32;5.70;99.90
13074;DHT22;6603;47.066;15.396;2023-11-21T03:25:58;5.80;99.90
13074;DHT22;6603;47.066;15.396;2023-11-21T03:28:25;6.00;99.90
13074;DHT22;6603;47.066;15.396;2023-11-21T03:30:58;5.90;99.90
13074;DHT22;6603;47.066;15.396;2023-11-21T03:33:24;5.90;99.90
13074;DHT22;6603;47.066;15.396;2023-11-21T03:35:50;5.90;99.90
13074;DHT22;6603;47.066;15.396;2023-11-21T03:38:18;5.90;99.90
13074;DHT22;6603;47.066;15.396;2023-11-21T03:40:45;5.90;99.90
13074;DHT22;6603;47.066;15.396;2023-11-21T03:43:11;6.00;99.90
13074;DHT22;6603;47.066;15.396;2023-11-21T03:45:37;6.10;99.90
13074;DHT22;6603;47.066;15.396;2023-11-21T03:48:03;6.00;99.90
13074;DHT22;6603;47.066;15.396;2023-11-21T03:50:29;6.10;99.90
13074;DHT22;6603;47.066;15.396;2023-11-21T03:52:55;6.10;99.90
13074;DHT22;6603;47.066;15.396;2023-11-21T03:55:21;6.10;99.90
13074;DHT22;6603;47.066;15.396;2023-11-21T03:57:47;6.00;99.90
13074;DHT22;6603;47.066;15.396;2023-11-21T04:00:13;6.10;99.90
13074;DHT22;6603;47.066;15.396;2023-11-21T04:02:39;6.20;99.90
13074;DHT22;6603;47.066;15.396;2023-11-21T04:05:06;6.00;99.90
13074;DHT22;6603;47.066;15.396;2023-11-21T04:07:33;6.00;99.90
13074;DHT22;6603;47.066;15.396;2023-11-21T04:09:59;6.10;99.90
13074;DHT22;6603;47.066;15.396;2023-11-21T04:12:25;6.00;99.90
13074;DHT22;6603;47.066;15.396;2023-11-21T04:14:51;6.10;99.90
13074;DHT22;6603;47.066;15.396;2023-11-21T04:17:20;6.00;99.90
13074;DHT22;6603;47.066;15.396;2023-11-21T04:19:46;6.10;99.90
13074;DHT22;6603;47.066;15.396;2023-11-21T04:22:12;6.10;99.90
13074;DHT22;6603;47.066;15.396;2023-11-21T04:24:38;6.20;99.90
13074;DHT22;6603;47.066;15.396;2023-11-21T04:27:04;6.20;99.90
13074;DHT22;6603;47.066;15.396;2023-11-21T04:29:30;6.10;99.90
13074;DHT22;6603;47.066;15.396;2023-11-21T04:31:56;6.20;99.90
13074;DHT22;6603;47.066;15.396;2023-11-21T04:34:22;6.20;99.90
13074;DHT22;6603;47.066;15.396;2023-11-21T04:36:49;6.20;99.90
13074;DHT22;6603;47.066;15.396;2023-11-21T04:39:15;6.20;99.90
13074;DHT22;6603;47.066;15.396;2023-11-21T04:41:41;6.30;99.90
13074;DHT22;6603;47.066;15.396;2023-11-21T04:44:06;6.10;99.90
13074;DHT22;6603;47.066;15.396;2023-11-21T04:46:33;6.00;99.90
13074;DHT22;6603;47.066;15.396;2023-11-21T04:48:59;5.90;99.90
13074;DHT22;6603;47.066;15.396;2023-11-21T04:51:25;6.00;99.90
13074;DHT22;6603;47.066;15.396;2023-11-21T04:53:51;6.00;99.90
13074;DHT22;6603;47.066;15.396;2023-11-21T04:56:17;6.00;99.90
13074;DHT22;6603;47.066;15.396;2023-11-21T04:58:43;5.90;99.90
13074;DHT22;6603;47.066;15.396;2023-11-21T05:01:08;5.90;99.90
13074;DHT22;6603;47.066;15.396;2023-11-21T05:03:35;5.80;99.90
13074;DHT22;6603;47.066;15.396;2023-11-21T05:06:01;6.00;99.90
13074;DHT22;6603;47.066;15.396;2023-11-21T05:08:27;6.00;99.90
13074;DHT22;6603;47.066;15.396;2023-11-21T05:10:53;5.90;99.90
13074;DHT22;6603;47.066;15.396;2023-11-21T05:13:20;5.90;99.90
13074;DHT22;6603;47.066;15.396;2023-11-21T05:15:46;5.90;99.90
13074;DHT22;6603;47.066;15.396;2023-11-21T05:18:12;5.90;99.90
13074;DHT22;6603;47.066;15.396;2023-11-21T05:20:39;6.10;99.90
13074;DHT22;6603;47.066;15.396;2023-11-21T05:23:07;6.10;99.90
13074;DHT22;6603;47.066;15.396;2023-11-21T05:25:34;6.20;99.90
13074;DHT22;6603;47.066;15.396;2023-11-21T05:28:00;6.20;99.90
13074;DHT22;6603;47.066;15.396;2023-11-21T05:30:27;6.20;99.90
13074;DHT22;6603;47.066;15.396;2023-11-21T05:32:53;6.10;99.90
13074;DHT22;6603;47.066;15.396;2023-11-21T05:35:19;6.10;99.90
13074;DHT22;6603;47.066;15.396;2023-11-21T05:37:47;6.10;99.90
13074;DHT22;6603;47.066;15.396;2023-11-21T05:40:13;6.20;99.90
13074;DHT22;6603;47.066;15.396;2023-11-21T05:42:39;6.20;99.90
13074;DHT22;6603;47.066;15.396;2023-11-21T05:45:07;6.10;99.90
13074;DHT22;6603;47.066;15.396;2023-11-21T05:47:38;6.10;99.90
13074;DHT22;6603;47.066;15.396;2023-11-21T05:50:06;6.00;99.90
13074;DHT22;6603;47.066;15.396;2023-11-21T05:52:35;6.10;99.90
13074;DHT22;6603;47.066;15.396;2023-11-21T05:55:02;5.90;99.90
13074;DHT22;6603;47.066;15.396;2023-11-21T05:57:28;6.00;99.90
13074;DHT22;6603;47.066;15.396;2023-11-21T05:59:53;6.10;99.90
13074;DHT22;6603;47.066;15.396;2023-11-21T06:02:20;6.10;99.90
13074;DHT22;6603;47.066;15.396;2023-11-21T06:04:46;6.20;99.90
13074;DHT22;6603;47.066;15.396;2023-11-21T06:07:12;6.20;99.90
13074;DHT22;6603;47.066;15.396;2023-11-21T06:09:38;6.20;99.90
13074;DHT22;6603;47.066;15.396;2023-11-21T06:12:04;6.20;99.90
13074;DHT22;6603;47.066;15.396;2023-11-21T06:14:31;6.20;99.90
13074;DHT22;6603;47.066;15.396;2023-11-21T06:16:59;6.20;99.90
13074;DHT22;6603;47.066;15.396;2023-11-21T06:19:25;6.20;99.90
13074;DHT22;6603;47.066;15.396;2023-11-21T06:21:53;6.30;99.90
13074;DHT22;6603;47.066;15.396;2023-11-21T06:24:20;6.10;99.90
13074;DHT22;6603;47.066;15.396;2023-11-21T06:26:47;6.30;99.90
13074;DHT22;6603;47.066;15.396;2023-11-21T06:29:14;6.30;99.90
13074;DHT22;6603;47.066;15.396;2023-11-21T06:31:40;6.20;99.90
13074;DHT22;6603;47.066;15.396;2023-11-21T06:34:06;6.30;99.90
13074;DHT22;6603;47.066;15.396;2023-11-21T06:36:37;6.30;99.90
13074;DHT22;6603;47.066;15.396;2023-11-21T06:39:03;6.30;99.90
13074;DHT22;6603;47.066;15.396;2023-11-21T06:41:34;6.40;99.90
13074;DHT22;6603;47.066;15.396;2023-11-21T06:44:00;6.40;99.90
13074;DHT22;6603;47.066;15.396;2023-11-21T06:46:26;6.40;99.90
13074;DHT22;6603;47.066;15.396;2023-11-21T06:48:52;6.40;99.90
13074;DHT22;6603;47.066;15.396;2023-11-21T06:51:18;6.40;99.90
13074;DHT22;6603;47.066;15.396;2023-11-21T06:53:44;6.40;99.90
13074;DHT22;6603;47.066;15.396;2023-11-21T06:56:19;6.50;99.90
13074;DHT22;6603;47.066;15.396;2023-11-21T06:58:46;6.50;99.90
13074;DHT22;6603;47.066;15.396;2023-11-21T07:01:13;6.40;99.90
13074;DHT22;6603;47.066;15.396;2023-11-21T07:03:39;6.40;99.90
13074;DHT22;6603;47.066;15.396;2023-11-21T07:06:06;6.40;99.90
13074;DHT22;6603;47.066;15.396;2023-11-21T07:08:33;6.40;99.90
13074;DHT22;6603;47.066;15.396;2023-11-21T07:10:59;6.50;99.90
13074;DHT22;6603;47.066;15.396;2023-11-21T07:13:25;6.60;99.90
13074;DHT22;6603;47.066;15.396;2023-11-21T07:15:51;6.60;99.90
13074;DHT22;6603;47.066;15.396;2023-11-21T07:18:18;6.60;99.90
13074;DHT22;6603;47.066;15.396;2023-11-21T07:20:44;6.60;99.90
13074;DHT22;6603;47.066;15.396;2023-11-21T07:23:10;6.60;99.90
13074;DHT22;6603;47.066;15.396;2023-11-21T07:25:36;6.60;99.90
13074;DHT22;6603;47.066;15.396;2023-11-21T07:28:02;6.70;99.90
13074;DHT22;6603;47.066;15.396;2023-11-21T07:30:29;6.70;99.90
13074;DHT22;6603;47.066;15.396;2023-11-21T07:32:55;6.70;99.90
13074;DHT22;6603;47.066;15.396;2023-11-21T07:35:21;6.70;99.90
13074;DHT22;6603;47.066;15.396;2023-11-21T07:37:47;6.80;99.90
13074;DHT22;6603;47.066;15.396;2023-11-21T07:40:14;6.90;99.90
13074;DHT22;6603;47.066;15.396;2023-11-21T07:42:41;6.90;99.90
13074;DHT22;6603;47.066;15.396;2023-11-21T07:45:09;7.00;99.90
13074;DHT22;6603;47.066;15.396;2023-11-21T07:47:35;7.00;99.90
13074;DHT22;6603;47.066;15.396;2023-11-21T07:50:03;7.10;99.90
13074;DHT22;6603;47.066;15.396;2023-11-21T07:52:29;7.20;99.90
13074;DHT22;6603;47.066;15.396;2023-11-21T07:54:55;7.30;99.90
13074;DHT22;6603;47.066;15.396;2023-11-21T07:57:22;7.30;99.90
13074;DHT22;6603;47.066;15.396;2023-11-21T07:59:48;7.40;99.90
13074;DHT22;6603;47.066;15.396;2023-11-21T08:02:17;7.40;99.90
13074;DHT22;6603;47.066;15.396;2023-11-21T08:04:43;7.50;99.90
13074;DHT22;6603;47.066;15.396;2023-11-21T08:07:10;7.50;99.90
13074;DHT22;6603;47.066;15.396;2023-11-21T08:09:39;7.60;99.90
13074;DHT22;6603;47.066;15.396;2023-11-21T08:12:05;7.70;99.90
13074;DHT22;6603;47.066;15.396;2023-11-21T08:14:36;7.70;99.90
13074;DHT22;6603;47.066;15.396;2023-11-21T08:17:04;7.80;99.90
13074;DHT22;6603;47.066;15.396;2023-11-21T08:19:33;7.80;99.90
13074;DHT22;6603;47.066;15.396;2023-11-21T08:22:09;7.80;99.90
13074;DHT22;6603;47.066;15.396;2023-11-21T08:24:38;7.90;99.90
13074;DHT22;6603;47.066;15.396;2023-11-21T08:27:08;7.90;99.90
13074;DHT22;6603;47.066;15.396;2023-11-21T08:29:34;7.90;99.90
13074;DHT22;6603;47.066;15.396;2023-11-21T08:32:06;7.90;99.90
13074;DHT22;6603;47.066;15.396;2023-11-21T08:34:32;8.00;99.90
13074;DHT22;6603;47.066;15.396;2023-11-21T08:36:58;8.00;99.90
13074;DHT22;6603;47.066;15.396;2023-11-21T08:39:23;8.10;99.90
13074;DHT22;6603;47.066;15.396;2023-11-21T08:41:50;8.00;99.90
13074;DHT22;6603;47.066;15.396;2023-11-21T08:44:19;8.00;99.90
13074;DHT22;6603;47.066;15.396;2023-11-21T08:47:08;8.00;99.90
13074;DHT22;6603;47.066;15.396;2023-11-21T08:49:47;8.00;99.90
13074;DHT22;6603;47.066;15.396;2023-11-21T08:52:13;8.00;99.90
13074;DHT22;6603;47.066;15.396;2023-11-21T08:54:39;8.00;99.90
13074;DHT22;6603;47.066;15.396;2023-11-21T08:57:05;8.00;99.90
13074;DHT22;6603;47.066;15.396;2023-11-21T08:59:31;8.00;99.90
13074;DHT22;6603;47.066;15.396;2023-11-21T09:01:57;8.10;99.90
13074;DHT22;6603;47.066;15.396;2023-11-21T09:04:25;8.10;99.90
13074;DHT22;6603;47.066;15.396;2023-11-21T09:06:51;8.20;99.90
13074;DHT22;6603;47.066;15.396;2023-11-21T09:09:17;8.30;99.90
13074;DHT22;6603;47.066;15.396;2023-11-21T09:11:48;8.40;99.90
13074;DHT22;6603;47.066;15.396;2023-11-21T09:14:15;8.40;99.90
13074;DHT22;6603;47.066;15.396;2023-11-21T09:16:41;8.50;99.90
13074;DHT22;6603;47.066;15.396;2023-11-21T09:19:08;8.50;99.90
13074;DHT22;6603;47.066;15.396;2023-11-21T09:21:37;8.60;99.90
13074;DHT22;6603;47.066;15.396;2023-11-21T09:24:06;8.70;99.90
13074;DHT22;6603;47.066;15.396;2023-11-21T09:26:39;8.80;99.90
13074;DHT22;6603;47.066;15.396;2023-11-21T09:29:10;8.70;99.90
13074;DHT22;6603;47.066;15.396;2023-11-21T09:31:42;8.80;99.90
13074;DHT22;6603;47.066;15.396;2023-11-21T09:34:09;8.80;99.90
13074;DHT22;6603;47.066;15.396;2023-11-21T09:36:40;8.80;99.90
13074;DHT22;6603;47.066;15.396;2023-11-21T09:39:17;8.80;99.90
13074;DHT22;6603;47.066;15.396;2023-11-21T09:42:02;8.80;99.90
13074;DHT22;6603;47.066;15.396;2023-11-21T09:44:35;8.70;99.90
13074;DHT22;6603;47.066;15.396;2023-11-21T09:47:03;8.80;99.90
13074;DHT22;6603;47.066;15.396;2023-11-21T09:49:29;8.70;99.90
13074;DHT22;6603;47.066;15.396;2023-11-21T09:52:01;8.90;99.90
13074;DHT22;6603;47.066;15.396;2023-11-21T09:54:33;8.90;99.90
13074;DHT22;6603;47.066;15.396;2023-11-21T09:57:00;8.90;99.90
13074;DHT22;6603;47.066;15.396;2023-11-21T09:59:30;9.00;99.90
13074;DHT22;6603;47.066;15.396;2023-11-21T10:01:57;9.00;99.90
13074;DHT22;6603;47.066;15.396;2023-11-21T10:04:27;9.10;99.90
13074;DHT22;6603;47.066;15.396;2023-11-21T10:06:54;9.20;99.90
13074;DHT22;6603;47.066;15.396;2023-11-21T10:09:23;9.20;99.90
13074;DHT22;6603;47.066;15.396;2023-11-21T10:11:53;9.20;99.90
13074;DHT22;6603;47.066;15.396;2023-11-21T10:14:26;9.30;99.90
13074;DHT22;6603;47.066;15.396;2023-11-21T10:17:01;9.20;99.90
13074;DHT22;6603;47.066;15.396;2023-11-21T10:19:27;9.20;99.90
13074;DHT22;6603;47.066;15.396;2023-11-21T10:21:54;9.20;99.90
13074;DHT22;6603;47.066;15.396;2023-11-21T10:24:23;9.20;99.90
13074;DHT22;6603;47.066;15.396;2023-11-21T10:26:49;9.20;99.90
13074;DHT22;6603;47.066;15.396;2023-11-21T10:29:16;9.10;99.90
13074;DHT22;6603;47.066;15.396;2023-11-21T10:31:44;9.20;99.90
13074;DHT22;6603;47.066;15.396;2023-11-21T10:34:19;9.10;99.90
13074;DHT22;6603;47.066;15.396;2023-11-21T10:36:45;9.20;99.90
13074;DHT22;6603;47.066;15.396;2023-11-21T10:39:19;9.30;99.90
13074;DHT22;6603;47.066;15.396;2023-11-21T10:41:49;9.20;99.90
13074;DHT22;6603;47.066;15.396;2023-11-21T10:44:17;9.20;99.90
13074;DHT22;6603;47.066;15.396;2023-11-21T10:46:51;9.20;99.90
13074;DHT22;6603;47.066;15.396;2023-11-21T10:49:18;9.20;99.90
13074;DHT22;6603;47.066;15.396;2023-11-21T10:51:45;9.30;99.90
13074;DHT22;6603;47.066;15.396;2023-11-21T10:54:11;9.30;99.90
13074;DHT22;6603;47.066;15.396;2023-11-21T10:56:39;9.40;99.90
13074;DHT22;6603;47.066;15.396;2023-11-21T10:59:10;9.40;99.90
13074;DHT22;6603;47.066;15.396;2023-11-21T11:01:45;9.40;99.90
13074;DHT22;6603;47.066;15.396;2023-11-21T11:04:14;9.40;99.90
13074;DHT22;6603;47.066;15.396;2023-11-21T11:07:05;9.40;99.90
13074;DHT22;6603;47.066;15.396;2023-11-21T11:09:35;9.40;99.90
13074;DHT22;6603;47.066;15.396;2023-11-21T11:12:04;9.30;99.90
13074;DHT22;6603;47.066;15.396;2023-11-21T11:14:33;9.30;99.90
13074;DHT22;6603;47.066;15.396;2023-11-21T11:16:59;9.40;99.90
13074;DHT22;6603;47.066;15.396;2023-11-21T11:19:28;9.30;99.90
13074;DHT22;6603;47.066;15.396;2023-11-21T11:27:55;9.40;99.90
13074;DHT22;6603;47.066;15.396;2023-11-21T11:33:30;9.40;99.90
13074;DHT22;6603;47.066;15.396;2023-11-21T11:36:17;9.40;99.90
13074;DHT22;6603;47.066;15.396;2023-11-21T11:38:47;9.40;99.90
13074;DHT22;6603;47.066;15.396;2023-11-21T11:41:25;9.40;99.90
13074;DHT22;6603;47.066;15.396;2023-11-21T11:43:53;9.40;99.90
13074;DHT22;6603;47.066;15.396;2023-11-21T11:46:19;9.30;99.90
13074;DHT22;6603;47.066;15.396;2023-11-21T11:48:48;9.30;99.90
13074;DHT22;6603;47.066;15.396;2023-11-21T11:51:29;9.30;99.90
13074;DHT22;6603;47.066;15.396;2023-11-21T11:53:57;9.40;99.90
13074;DHT22;6603;47.066;15.396;2023-11-21T11:56:32;9.40;99.90
13074;DHT22;6603;47.066;15.396;2023-11-21T11:59:04;9.40;99.90
13074;DHT22;6603;47.066;15.396;2023-11-21T12:01:33;9.40;99.90
13074;DHT22;6603;47.066;15.396;2023-11-21T12:06:43;9.50;99.90
13074;DHT22;6603;47.066;15.396;2023-11-21T12:09:20;9.50;99.90
13074;DHT22;6603;47.066;15.396;2023-11-21T12:11:51;9.60;99.90
13074;DHT22;6603;47.066;15.396;2023-11-21T12:14:17;9.50;99.90
13074;DHT22;6603;47.066;15.396;2023-11-21T12:16:44;9.60;99.90
13074;DHT22;6603;47.066;15.396;2023-11-21T12:19:13;9.60;99.90
13074;DHT22;6603;47.066;15.396;2023-11-21T12:21:39;9.70;99.90
13074;DHT22;6603;47.066;15.396;2023-11-21T12:24:10;9.70;99.90
13074;DHT22;6603;47.066;15.396;2023-11-21T12:26:40;9.60;99.90
13074;DHT22;6603;47.066;15.396;2023-11-21T12:29:06;9.70;99.90
13074;DHT22;6603;47.066;15.396;2023-11-21T12:31:34;9.70;99.90
13074;DHT22;6603;47.066;15.396;2023-11-21T12:34:05;9.70;99.90
13074;DHT22;6603;47.066;15.396;2023-11-21T12:36:32;9.70;99.90
13074;DHT22;6603;47.066;15.396;2023-11-21T12:38:59;9.70;99.90
13074;DHT22;6603;47.066;15.396;2023-11-21T12:41:26;9.70;99.90
13074;DHT22;6603;47.066;15.396;2023-11-21T12:43:52;9.60;99.90
13074;DHT22;6603;47.066;15.396;2023-11-21T12:46:18;9.60;99.90
13074;DHT22;6603;47.066;15.396;2023-11-21T12:48:46;9.60;99.90
13074;DHT22;6603;47.066;15.396;2023-11-21T12:51:13;9.60;99.90
13074;DHT22;6603;47.066;15.396;2023-11-21T12:53:42;9.60;99.90
13074;DHT22;6603;47.066;15.396;2023-11-21T12:56:12;9.50;99.90
13074;DHT22;6603;47.066;15.396;2023-11-21T12:58:40;9.50;99.90
13074;DHT22;6603;47.066;15.396;2023-11-21T13:01:13;9.50;99.90
13074;DHT22;6603;47.066;15.396;2023-11-21T13:03:46;9.60;99.90
13074;DHT22;6603;47.066;15.396;2023-11-21T13:06:15;9.60;99.90
13074;DHT22;6603;47.066;15.396;2023-11-21T13:08:41;9.50;99.90
13074;DHT22;6603;47.066;15.396;2023-11-21T13:11:11;9.50;99.90
13074;DHT22;6603;47.066;15.396;2023-11-21T13:13:40;9.50;99.90
13074;DHT22;6603;47.066;15.396;2023-11-21T13:16:08;9.40;99.90
13074;DHT22;6603;47.066;15.396;2023-11-21T13:18:35;9.40;99.90
13074;DHT22;6603;47.066;15.396;2023-11-21T13:21:04;9.40;99.90
13074;DHT22;6603;47.066;15.396;2023-11-21T13:23:41;9.40;99.90
13074;DHT22;6603;47.066;15.396;2023-11-21T13:26:08;9.40;99.90
13074;DHT22;6603;47.066;15.396;2023-11-21T13:28:35;9.40;99.90
13074;DHT22;6603;47.066;15.396;2023-11-21T13:31:04;9.50;99.90
13074;DHT22;6603;47.066;15.396;2023-11-21T13:33:47;9.50;99.90
13074;DHT22;6603;47.066;15.396;2023-11-21T13:36:25;9.50;99.90
13074;DHT22;6603;47.066;15.396;2023-11-21T13:38:54;9.50;99.90
13074;DHT22;6603;47.066;15.396;2023-11-21T13:41:20;9.50;99.90
13074;DHT22;6603;47.066;15.396;2023-11-21T13:43:50;9.40;99.90
13074;DHT22;6603;47.066;15.396;2023-11-21T13:46:18;9.40;99.90
13074;DHT22;6603;47.066;15.396;2023-11-21T13:48:48;9.50;99.90
13074;DHT22;6603;47.066;15.396;2023-11-21T13:51:22;9.50;99.90
13074;DHT22;6603;47.066;15.396;2023-11-21T13:53:57;9.50;99.90
13074;DHT22;6603;47.066;15.396;2023-11-21T13:56:22;9.50;99.90
13074;DHT22;6603;47.066;15.396;2023-11-21T13:58:50;9.40;99.90
13074;DHT22;6603;47.066;15.396;2023-11-21T14:01:22;9.40;99.90
13074;DHT22;6603;47.066;15.396;2023-11-21T14:03:54;9.30;99.90
13074;DHT22;6603;47.066;15.396;2023-11-21T14:06:30;9.20;99.90
13074;DHT22;6603;47.066;15.396;2023-11-21T14:09:05;9.20;99.90
13074;DHT22;6603;47.066;15.396;2023-11-21T14:14:51;9.10;99.90
13074;DHT22;6603;47.066;15.396;2023-11-21T14:17:17;9.00;99.90
13074;DHT22;6603;47.066;15.396;2023-11-21T14:19:43;9.00;99.90
13074;DHT22;6603;47.066;15.396;2023-11-21T14:22:10;9.00;99.90
13074;DHT22;6603;47.066;15.396;2023-11-21T14:24:36;9.00;99.90
13074;DHT22;6603;47.066;15.396;2023-11-21T14:27:02;9.00;99.90
13074;DHT22;6603;47.066;15.396;2023-11-21T14:29:29;8.90;99.90
13074;DHT22;6603;47.066;15.396;2023-11-21T14:31:55;8.80;99.90
13074;DHT22;6603;47.066;15.396;2023-11-21T14:34:23;8.80;99.90
13074;DHT22;6603;47.066;15.396;2023-11-21T14:36:50;8.70;99.90
13074;DHT22;6603;47.066;15.396;2023-11-21T14:39:16;8.60;99.90
13074;DHT22;6603;47.066;15.396;2023-11-21T14:41:50;8.50;99.90
13074;DHT22;6603;47.066;15.396;2023-11-21T14:44:16;8.50;99.90
13074;DHT22;6603;47.066;15.396;2023-11-21T14:46:42;8.40;99.90
13074;DHT22;6603;47.066;15.396;2023-11-21T14:49:12;8.40;99.90
13074;DHT22;6603;47.066;15.396;2023-11-21T14:51:51;8.30;99.90
13074;DHT22;6603;47.066;15.396;2023-11-21T14:54:32;8.20;99.90
13074;DHT22;6603;47.066;15.396;2023-11-21T14:57:21;8.10;99.90
13074;DHT22;6603;47.066;15.396;2023-11-21T14:59:49;7.80;99.90
13074;DHT22;6603;47.066;15.396;2023-11-21T15:02:20;7.70;99.90
13074;DHT22;6603;47.066;15.396;2023-11-21T15:04:49;7.70;99.90
13074;DHT22;6603;47.066;15.396;2023-11-21T15:07:18;7.60;99.90
13074;DHT22;6603;47.066;15.396;2023-11-21T15:09:44;7.50;99.90
13074;DHT22;6603;47.066;15.396;2023-11-21T15:12:11;7.50;99.90
13074;DHT22;6603;47.066;15.396;2023-11-21T15:17:09;7.40;99.90
13074;DHT22;6603;47.066;15.396;2023-11-21T15:19:35;7.30;99.90
13074;DHT22;6603;47.066;15.396;2023-11-21T15:22:02;7.20;99.90
13074;DHT22;6603;47.066;15.396;2023-11-21T15:24:28;7.30;99.90
13074;DHT22;6603;47.066;15.396;2023-11-21T15:26:54;7.30;99.90
13074;DHT22;6603;47.066;15.396;2023-11-21T15:29:20;7.20;99.90
13074;DHT22;6603;47.066;15.396;2023-11-21T15:31:47;7.20;99.90
13074;DHT22;6603;47.066;15.396;2023-11-21T15:34:17;7.20;99.90
13074;DHT22;6603;47.066;15.396;2023-11-21T15:36:43;7.00;99.90
13074;DHT22;6603;47.066;15.396;2023-11-21T15:39:10;7.10;99.90
13074;DHT22;6603;47.066;15.396;2023-11-21T15:41:38;7.10;99.90
13074;DHT22;6603;47.066;15.396;2023-11-21T15:44:06;7.20;99.90
13074;DHT22;6603;47.066;15.396;2023-11-21T15:46:34;7.30;99.90
13074;DHT22;6603;47.066;15.396;2023-11-21T15:49:05;7.30;99.90
13074;DHT22;6603;47.066;15.396;2023-11-21T15:51:43;7.30;99.90
13074;DHT22;6603;47.066;15.396;2023-11-21T15:54:19;7.40;99.90
13074;DHT22;6603;47.066;15.396;2023-11-21T15:56:47;7.30;99.90
13074;DHT22;6603;47.066;15.396;2023-11-21T15:59:14;7.30;99.90
13074;DHT22;6603;47.066;15.396;2023-11-21T16:01:40;7.30;99.90
13074;DHT22;6603;47.066;15.396;2023-11-21T16:04:15;7.20;99.90
13074;DHT22;6603;47.066;15.396;2023-11-21T16:06:46;7.00;99.90
13074;DHT22;6603;47.066;15.396;2023-11-21T16:09:16;7.00;99.90